Time;durP1;ratioP1;P1;durP2;ratioP2;P2;SDS_P1;SDS_P2;PMS_P1;PMS_P2;Temp;Humidity;BMP_temperature;BMP_pressure;BME280_temperature;BME280_humidity;BME280_pressure;Samples;Min_cycle;Max_cycle;Signal;HPM_P1;HPM_P2
2024/02/16 00:00:12;;;;;;;7.82;5.50;;;;;;;;;;5036135;28;20049;-63
2024/02/16 00:02:39;;;;;;;7.60;5.38;;;;;;;;;;5037182;28;20063;-63
2024/02/16 00:05:07;;;;;;;21.38;12.07;;;;;;;;;;5033467;28;20045;-63
2024/02/16 00:07:34;;;;;;;12.52;7.63;;;;;;;;;;5037947;28;20509;-63
2024/02/16 00:10:00;;;;;;;13.48;7.55;;;;;;;;;;5037459;28;20048;-62
2024/02/16 00:12:26;;;;;;;13.52;7.00;;;;;;;;;;5041681;28;20045;-63
2024/02/16 00:14:52;;;;;;;12.35;7.68;;;;;;;;;;5036521;28;20056;-63
2024/02/16 00:17:18;;;;;;;10.73;5.35;;;;;;;;;;5039833;28;20057;-63
2024/02/16 00:19:44;;;;;;;8.82;4.72;;;;;;;;;;5041557;28;20052;-63
2024/02/16 00:22:10;;;;;;;7.40;4.68;;;;;;;;;;5037123;28;20445;-63
2024/02/16 00:24:36;;;;;;;8.85;4.45;;;;;;;;;;5040123;28;20045;-63
2024/02/16 00:27:05;;;;;;;7.65;4.25;;;;;;;;;;5041220;28;20029;-63
2024/02/16 00:29:31;;;;;;;6.70;4.40;;;;;;;;;;5043312;28;20052;-63
2024/02/16 00:31:59;;;;;;;5.82;3.65;;;;;;;;;;5041773;28;20049;-62
2024/02/16 00:34:25;;;;;;;6.07;3.78;;;;;;;;;;5035931;28;20052;-63
2024/02/16 00:36:52;;;;;;;6.22;4.10;;;;;;;;;;5037495;28;20034;-63
2024/02/16 00:39:18;;;;;;;5.82;3.72;;;;;;;;;;5039261;28;20037;-63
2024/02/16 00:41:46;;;;;;;6.00;3.70;;;;;;;;;;5044430;28;20044;-63
2024/02/16 00:44:12;;;;;;;9.23;4.07;;;;;;;;;;5039866;28;20057;-63
2024/02/16 00:46:38;;;;;;;4.90;3.55;;;;;;;;;;5041368;28;20049;-63
2024/02/16 00:49:04;;;;;;;6.80;3.72;;;;;;;;;;5040589;28;20053;-64
2024/02/16 00:51:30;;;;;;;7.50;3.70;;;;;;;;;;5040033;28;20029;-63
2024/02/16 00:53:56;;;;;;;4.80;3.08;;;;;;;;;;5038301;28;20053;-62
2024/02/16 00:56:23;;;;;;;4.90;2.60;;;;;;;;;;5039610;28;20731;-63
2024/02/16 00:58:49;;;;;;;5.55;2.90;;;;;;;;;;5041043;28;20044;-63
2024/02/16 01:01:15;;;;;;;4.30;2.22;;;;;;;;;;5036434;28;20044;-63
2024/02/16 01:03:41;;;;;;;6.35;2.92;;;;;;;;;;5040628;28;20071;-63
2024/02/16 01:06:10;;;;;;;3.42;2.05;;;;;;;;;;5036043;28;20041;-62
2024/02/16 01:08:36;;;;;;;5.15;2.53;;;;;;;;;;5040664;28;20049;-62
2024/02/16 01:11:02;;;;;;;4.60;2.40;;;;;;;;;;5030212;28;20045;-63
2024/02/16 01:13:28;;;;;;;4.78;2.35;;;;;;;;;;5034205;28;20428;-63
2024/02/16 01:15:54;;;;;;;4.30;2.63;;;;;;;;;;5034875;28;20053;-62
2024/02/16 01:18:20;;;;;;;3.92;2.78;;;;;;;;;;5041385;28;20405;-63
2024/02/16 01:20:46;;;;;;;5.50;2.67;;;;;;;;;;5038670;28;20041;-62
2024/02/16 01:23:12;;;;;;;3.83;2.38;;;;;;;;;;5041187;28;20523;-62
2024/02/16 01:25:38;;;;;;;4.25;2.25;;;;;;;;;;5032953;28;20416;-62
2024/02/16 01:28:05;;;;;;;5.32;2.50;;;;;;;;;;5040252;28;20041;-63
2024/02/16 01:30:31;;;;;;;2.88;2.08;;;;;;;;;;5040962;28;20055;-62
2024/02/16 01:32:57;;;;;;;4.65;2.25;;;;;;;;;;5042506;28;20041;-62
2024/02/16 01:35:23;;;;;;;3.03;2.10;;;;;;;;;;5036793;28;20048;-62
2024/02/16 01:37:49;;;;;;;6.13;3.55;;;;;;;;;;5040609;28;20062;-63
2024/02/16 01:40:17;;;;;;;5.18;3.20;;;;;;;;;;5043888;28;20127;-62
2024/02/16 01:42:44;;;;;;;6.57;2.47;;;;;;;;;;5043633;28;20044;-63
2024/02/16 01:45:12;;;;;;;4.75;2.05;;;;;;;;;;5032384;28;20048;-63
2024/02/16 01:47:38;;;;;;;3.53;2.10;;;;;;;;;;5034598;28;20052;-63
2024/02/16 01:50:05;;;;;;;4.78;2.20;;;;;;;;;;5040363;28;20056;-62
2024/02/16 01:52:34;;;;;;;3.60;2.33;;;;;;;;;;5064386;28;20057;-64
2024/02/16 01:55:02;;;;;;;2.97;1.92;;;;;;;;;;5034690;28;20053;-62
2024/02/16 01:57:30;;;;;;;4.63;2.00;;;;;;;;;;5038633;28;20036;-63
2024/02/16 01:59:57;;;;;;;5.20;2.10;;;;;;;;;;5040606;28;20061;-62
2024/02/16 02:02:24;;;;;;;6.00;2.20;;;;;;;;;;5036277;28;20524;-62
2024/02/16 02:04:50;;;;;;;8.75;3.03;;;;;;;;;;5038784;28;20061;-63
2024/02/16 02:07:17;;;;;;;5.10;2.58;;;;;;;;;;5038334;28;20053;-63
2024/02/16 02:09:43;;;;;;;4.93;3.00;;;;;;;;;;5040110;28;20052;-63
2024/02/16 02:12:09;;;;;;;4.68;2.80;;;;;;;;;;5038017;28;20056;-64
2024/02/16 02:14:39;;;;;;;6.35;3.08;;;;;;;;;;5032234;28;20045;-62
2024/02/16 02:17:05;;;;;;;4.55;2.53;;;;;;;;;;5037495;28;20041;-63
2024/02/16 02:19:31;;;;;;;6.35;2.70;;;;;;;;;;5042196;28;20045;-62
2024/02/16 02:21:57;;;;;;;3.67;2.35;;;;;;;;;;5041959;28;20052;-63
2024/02/16 02:24:23;;;;;;;7.93;2.70;;;;;;;;;;5039507;28;20045;-63
2024/02/16 02:26:49;;;;;;;4.93;2.60;;;;;;;;;;5038671;28;20046;-63
2024/02/16 02:29:15;;;;;;;5.30;2.60;;;;;;;;;;5042090;28;20047;-63
2024/02/16 02:31:41;;;;;;;3.33;2.40;;;;;;;;;;5037490;28;20412;-62
2024/02/16 02:34:10;;;;;;;4.97;2.65;;;;;;;;;;5040665;28;20527;-63
2024/02/16 02:36:36;;;;;;;7.03;3.40;;;;;;;;;;5039847;28;20385;-63
2024/02/16 02:39:03;;;;;;;4.60;2.65;;;;;;;;;;5047363;28;20044;-63
2024/02/16 02:41:29;;;;;;;3.05;2.42;;;;;;;;;;5039834;28;20096;-63
2024/02/16 02:43:55;;;;;;;4.63;2.97;;;;;;;;;;5038567;28;20072;-64
2024/02/16 02:46:23;;;;;;;4.95;2.78;;;;;;;;;;5044315;28;20033;-63
2024/02/16 02:48:51;;;;;;;4.55;3.08;;;;;;;;;;5045533;28;20048;-64
2024/02/16 02:51:17;;;;;;;6.45;3.38;;;;;;;;;;5040334;28;20416;-64
2024/02/16 02:53:43;;;;;;;7.35;4.00;;;;;;;;;;5039734;28;20060;-63
2024/02/16 02:56:09;;;;;;;10.13;4.90;;;;;;;;;;5037098;28;20026;-62
2024/02/16 02:58:35;;;;;;;9.73;5.28;;;;;;;;;;5045017;28;20045;-63
2024/02/16 03:01:01;;;;;;;12.57;6.38;;;;;;;;;;5044864;28;20048;-63
2024/02/16 03:03:27;;;;;;;10.85;6.20;;;;;;;;;;5039582;28;20408;-63
2024/02/16 03:05:53;;;;;;;10.75;5.13;;;;;;;;;;5036609;28;20046;-63
2024/02/16 03:08:19;;;;;;;9.00;4.45;;;;;;;;;;5032248;28;20061;-63
2024/02/16 03:10:45;;;;;;;8.20;4.28;;;;;;;;;;5039247;28;20045;-62
2024/02/16 03:13:14;;;;;;;6.82;3.17;;;;;;;;;;5030412;28;20044;-62
2024/02/16 03:15:40;;;;;;;4.55;2.70;;;;;;;;;;5037468;28;20049;-62
2024/02/16 03:18:09;;;;;;;4.28;2.40;;;;;;;;;;5042494;28;20048;-63
2024/02/16 03:20:35;;;;;;;3.92;2.58;;;;;;;;;;5036100;28;20041;-62
2024/02/16 03:23:02;;;;;;;5.63;2.38;;;;;;;;;;5037821;28;20056;-63
2024/02/16 03:25:29;;;;;;;3.33;1.90;;;;;;;;;;5037389;28;20040;-63
2024/02/16 03:27:55;;;;;;;3.83;2.00;;;;;;;;;;5033592;28;20044;-62
2024/02/16 03:30:21;;;;;;;3.92;2.30;;;;;;;;;;5040630;28;20041;-63
2024/02/16 03:32:52;;;;;;;5.85;1.98;;;;;;;;;;5045653;28;20037;-62
2024/02/16 03:35:18;;;;;;;3.80;2.35;;;;;;;;;;5045523;28;20052;-62
2024/02/16 03:37:44;;;;;;;3.58;2.05;;;;;;;;;;5042970;28;20052;-62
2024/02/16 03:40:12;;;;;;;2.80;2.10;;;;;;;;;;5034302;28;20064;-63
2024/02/16 03:42:40;;;;;;;2.95;1.90;;;;;;;;;;5034271;28;20113;-62
2024/02/16 03:45:07;;;;;;;2.97;1.77;;;;;;;;;;5039927;28;20571;-62
2024/02/16 03:47:33;;;;;;;3.70;2.13;;;;;;;;;;5042490;28;20110;-64
2024/02/16 03:49:59;;;;;;;3.95;2.30;;;;;;;;;;5034077;28;20041;-61
2024/02/16 03:52:25;;;;;;;5.25;2.17;;;;;;;;;;5036731;28;20054;-63
2024/02/16 03:54:51;;;;;;;4.88;1.77;;;;;;;;;;5034804;28;20523;-62
2024/02/16 03:57:17;;;;;;;2.22;1.58;;;;;;;;;;5034376;28;20045;-63
2024/02/16 03:59:43;;;;;;;2.38;1.70;;;;;;;;;;5038454;28;20039;-63
2024/02/16 04:02:10;;;;;;;3.25;1.90;;;;;;;;;;5034557;28;20489;-63
2024/02/16 04:04:36;;;;;;;3.35;1.90;;;;;;;;;;5035947;28;20037;-63
2024/02/16 04:07:03;;;;;;;3.55;1.90;;;;;;;;;;5036008;28;20041;-63
2024/02/16 04:09:29;;;;;;;4.22;1.80;;;;;;;;;;5038394;28;20497;-62
2024/02/16 04:11:55;;;;;;;5.47;1.95;;;;;;;;;;5038943;28;20100;-63
2024/02/16 04:14:21;;;;;;;2.65;1.70;;;;;;;;;;5036820;28;20402;-61
2024/02/16 04:16:47;;;;;;;3.50;1.85;;;;;;;;;;5036990;28;20488;-63
2024/02/16 04:19:13;;;;;;;3.13;1.80;;;;;;;;;;5033453;28;20037;-64
2024/02/16 04:21:39;;;;;;;4.53;1.67;;;;;;;;;;5036327;28;20033;-63
2024/02/16 04:24:06;;;;;;;3.50;1.85;;;;;;;;;;5029899;28;20045;-64
2024/02/16 04:26:32;;;;;;;6.18;2.70;;;;;;;;;;5039150;28;20038;-62
2024/02/16 04:28:58;;;;;;;4.28;2.38;;;;;;;;;;5030272;28;20049;-64
2024/02/16 04:31:24;;;;;;;5.07;2.70;;;;;;;;;;5038882;28;20045;-63
2024/02/16 04:33:50;;;;;;;3.80;2.40;;;;;;;;;;5043451;28;20523;-63
2024/02/16 04:36:16;;;;;;;4.78;2.58;;;;;;;;;;5044175;28;20045;-62
2024/02/16 04:38:42;;;;;;;3.65;2.47;;;;;;;;;;5040543;28;20044;-62
2024/02/16 04:41:08;;;;;;;3.72;2.35;;;;;;;;;;5038092;28;20029;-62
2024/02/16 04:43:34;;;;;;;4.78;2.50;;;;;;;;;;5031343;28;20041;-62
2024/02/16 04:46:01;;;;;;;4.45;2.53;;;;;;;;;;5036873;28;20053;-61
2024/02/16 04:48:27;;;;;;;7.95;3.00;;;;;;;;;;5034631;28;20049;-63
2024/02/16 04:50:53;;;;;;;6.05;3.50;;;;;;;;;;5036323;28;20037;-62
2024/02/16 04:53:19;;;;;;;6.10;4.32;;;;;;;;;;5036320;28;20052;-63
2024/02/16 04:55:45;;;;;;;7.20;3.83;;;;;;;;;;5038784;28;20108;-63
2024/02/16 04:58:11;;;;;;;6.93;3.85;;;;;;;;;;5036514;28;20473;-63
2024/02/16 05:00:38;;;;;;;7.85;4.43;;;;;;;;;;5041873;28;20606;-62
2024/02/16 05:03:04;;;;;;;7.10;4.10;;;;;;;;;;5040321;28;20048;-62
2024/02/16 05:05:30;;;;;;;5.57;3.40;;;;;;;;;;5038025;28;20495;-63
2024/02/16 05:07:57;;;;;;;3.97;2.85;;;;;;;;;;5031254;28;20052;-62
2024/02/16 05:10:23;;;;;;;5.22;3.05;;;;;;;;;;5033421;28;20505;-63
2024/02/16 05:12:49;;;;;;;4.25;2.50;;;;;;;;;;5037973;28;20052;-62
2024/02/16 05:15:15;;;;;;;3.90;2.40;;;;;;;;;;5036559;28;20049;-62
2024/02/16 05:17:41;;;;;;;4.82;2.50;;;;;;;;;;5037740;28;20041;-62
2024/02/16 05:20:15;;;;;;;4.32;2.22;;;;;;;;;;5038045;28;20076;-62
2024/02/16 05:22:45;;;;;;;5.28;2.00;;;;;;;;;;5037952;28;20056;-63
2024/02/16 05:25:12;;;;;;;7.68;2.42;;;;;;;;;;5041405;28;20044;-63
2024/02/16 05:27:39;;;;;;;3.97;2.00;;;;;;;;;;5038372;28;20049;-64
2024/02/16 05:30:07;;;;;;;5.22;2.10;;;;;;;;;;5033618;28;20080;-62
2024/02/16 05:32:37;;;;;;;4.07;2.20;;;;;;;;;;5043002;28;20045;-63
2024/02/16 05:35:17;;;;;;;2.67;2.03;;;;;;;;;;5042157;28;20040;-64
2024/02/16 05:37:44;;;;;;;2.60;1.60;;;;;;;;;;5037485;28;20037;-63
2024/02/16 05:40:30;;;;;;;3.97;1.80;;;;;;;;;;5038281;28;20128;-62
2024/02/16 05:43:00;;;;;;;3.38;1.92;;;;;;;;;;5039177;28;20049;-65
2024/02/16 05:45:26;;;;;;;3.25;1.83;;;;;;;;;;5032324;28;20041;-62
2024/02/16 05:47:52;;;;;;;2.28;1.70;;;;;;;;;;5040645;28;20055;-63
2024/02/16 05:50:21;;;;;;;6.55;1.90;;;;;;;;;;5040051;28;20053;-63
2024/02/16 05:52:47;;;;;;;3.60;1.83;;;;;;;;;;5040240;28;20029;-63
2024/02/16 05:55:14;;;;;;;3.25;1.98;;;;;;;;;;5038683;28;20050;-62
2024/02/16 05:57:40;;;;;;;4.80;2.25;;;;;;;;;;5030874;28;20047;-62
2024/02/16 06:00:08;;;;;;;9.60;2.97;;;;;;;;;;5039156;28;20056;-63
2024/02/16 06:02:35;;;;;;;5.28;3.17;;;;;;;;;;5042400;28;20048;-63
2024/02/16 06:05:04;;;;;;;4.45;3.28;;;;;;;;;;5042827;28;20037;-63
2024/02/16 06:07:30;;;;;;;7.88;3.50;;;;;;;;;;5043076;28;20049;-64
2024/02/16 06:09:57;;;;;;;5.75;3.65;;;;;;;;;;5045131;28;20045;-64
2024/02/16 06:12:23;;;;;;;5.18;2.90;;;;;;;;;;5040389;28;20511;-65
2024/02/16 06:14:50;;;;;;;9.95;6.05;;;;;;;;;;5042512;28;20048;-65
2024/02/16 06:17:16;;;;;;;13.13;6.72;;;;;;;;;;5041064;28;20044;-65
2024/02/16 06:19:43;;;;;;;11.90;5.63;;;;;;;;;;5047880;28;20487;-65
2024/02/16 06:22:09;;;;;;;7.10;4.20;;;;;;;;;;5044736;28;20076;-65
2024/02/16 06:24:36;;;;;;;10.35;4.20;;;;;;;;;;5042073;28;20041;-65
2024/02/16 06:27:04;;;;;;;10.82;4.20;;;;;;;;;;5042683;28;20493;-64
2024/02/16 06:29:30;;;;;;;8.73;4.65;;;;;;;;;;5042762;28;20057;-64
2024/02/16 06:31:56;;;;;;;6.75;3.72;;;;;;;;;;5047233;28;20045;-65
2024/02/16 06:34:23;;;;;;;6.25;3.47;;;;;;;;;;5041067;28;20050;-65
2024/02/16 06:36:49;;;;;;;5.05;3.22;;;;;;;;;;5038027;28;20045;-65
2024/02/16 06:39:19;;;;;;;5.07;3.33;;;;;;;;;;5044923;28;20484;-63
2024/02/16 06:41:46;;;;;;;6.57;3.50;;;;;;;;;;5038075;28;20042;-65
2024/02/16 06:44:14;;;;;;;5.72;3.42;;;;;;;;;;5036821;28;20046;-64
2024/02/16 06:46:40;;;;;;;5.05;3.05;;;;;;;;;;5049409;28;20037;-64
2024/02/16 06:49:06;;;;;;;7.28;3.28;;;;;;;;;;5041334;28;20037;-64
2024/02/16 06:51:33;;;;;;;7.43;3.75;;;;;;;;;;5041391;28;20046;-64
2024/02/16 06:53:59;;;;;;;6.38;3.80;;;;;;;;;;5042400;28;20048;-62
2024/02/16 06:56:25;;;;;;;6.60;4.57;;;;;;;;;;5039043;28;20056;-64
2024/02/16 06:58:51;;;;;;;6.85;3.20;;;;;;;;;;5041419;28;20063;-64
2024/02/16 07:01:20;;;;;;;5.72;2.50;;;;;;;;;;5040260;28;20571;-63
2024/02/16 07:03:46;;;;;;;3.00;2.00;;;;;;;;;;5027989;28;20045;-64
2024/02/16 07:06:13;;;;;;;2.78;1.83;;;;;;;;;;5038453;28;20045;-64
2024/02/16 07:08:40;;;;;;;2.45;1.60;;;;;;;;;;5031302;28;20048;-64
2024/02/16 07:11:07;;;;;;;3.05;1.40;;;;;;;;;;5039966;28;20488;-63
2024/02/16 07:13:34;;;;;;;3.22;1.73;;;;;;;;;;5041618;28;20477;-63
2024/02/16 07:16:00;;;;;;;1.85;1.27;;;;;;;;;;5044739;28;20509;-64
2024/02/16 07:18:26;;;;;;;2.65;2.00;;;;;;;;;;5043151;28;20076;-64
2024/02/16 07:20:52;;;;;;;2.45;1.63;;;;;;;;;;5041893;28;20049;-64
2024/02/16 07:23:18;;;;;;;3.83;1.60;;;;;;;;;;5042520;28;20042;-64
2024/02/16 07:25:45;;;;;;;3.70;1.63;;;;;;;;;;5046209;28;20037;-64
2024/02/16 07:28:11;;;;;;;5.90;2.50;;;;;;;;;;5041725;28;20393;-64
2024/02/16 07:30:38;;;;;;;4.97;2.15;;;;;;;;;;5041667;28;20424;-64
2024/02/16 07:33:07;;;;;;;4.38;1.80;;;;;;;;;;5041430;28;20436;-64
2024/02/16 07:35:35;;;;;;;;;;;;;;;;;;5038855;28;20056;-63
2024/02/16 07:38:04;;;;;;;3.28;1.77;;;;;;;;;;5044004;28;19920;-64
2024/02/16 07:40:31;;;;;;;6.40;1.80;;;;;;;;;;5041892;28;20068;-64
2024/02/16 07:42:57;;;;;;;4.47;1.50;;;;;;;;;;5036394;28;20037;-64
2024/02/16 07:45:24;;;;;;;3.92;1.70;;;;;;;;;;5044886;28;20056;-64
2024/02/16 07:47:50;;;;;;;3.40;1.60;;;;;;;;;;5050560;28;20044;-65
2024/02/16 07:50:21;;;;;;;3.45;1.98;;;;;;;;;;5042909;28;20063;-65
2024/02/16 07:52:49;;;;;;;3.60;2.00;;;;;;;;;;5036362;28;20109;-64
2024/02/16 07:55:18;;;;;;;3.55;2.00;;;;;;;;;;5029263;28;20286;-64
2024/02/16 07:57:45;;;;;;;2.80;1.90;;;;;;;;;;5037215;28;20033;-64
2024/02/16 08:00:11;;;;;;;3.13;1.65;;;;;;;;;;5038645;28;20041;-64
2024/02/16 08:02:39;;;;;;;5.65;2.03;;;;;;;;;;5041956;28;20037;-63
2024/02/16 08:05:06;;;;;;;3.45;1.77;;;;;;;;;;5047200;28;20529;-63
2024/02/16 08:07:32;;;;;;;4.00;1.90;;;;;;;;;;5043784;28;20045;-63
2024/02/16 08:09:58;;;;;;;2.85;1.90;;;;;;;;;;5046111;28;20055;-64
2024/02/16 08:12:26;;;;;;;6.28;2.97;;;;;;;;;;5042332;28;20400;-64
2024/02/16 08:14:52;;;;;;;4.38;1.83;;;;;;;;;;5043156;28;20056;-64
2024/02/16 08:17:18;;;;;;;2.83;2.03;;;;;;;;;;5040507;28;20045;-64
2024/02/16 08:19:51;;;;;;;4.05;2.03;;;;;;;;;;5048366;28;20048;-63
2024/02/16 08:22:18;;;;;;;3.42;2.22;;;;;;;;;;5037198;28;20053;-64
2024/02/16 08:24:46;;;;;;;4.07;2.40;;;;;;;;;;5041011;28;20049;-64
2024/02/16 08:27:12;;;;;;;7.57;3.70;;;;;;;;;;5037971;28;20052;-63
2024/02/16 08:29:38;;;;;;;5.95;3.30;;;;;;;;;;5046139;28;20040;-62
2024/02/16 08:32:05;;;;;;;5.10;2.90;;;;;;;;;;5043693;28;20056;-63
2024/02/16 08:34:31;;;;;;;3.55;2.40;;;;;;;;;;5041129;28;20048;-64
2024/02/16 08:36:58;;;;;;;5.03;2.65;;;;;;;;;;5034060;28;20059;-63
2024/02/16 08:39:25;;;;;;;5.68;2.75;;;;;;;;;;5035890;28;20057;-63
2024/02/16 08:41:51;;;;;;;5.40;2.45;;;;;;;;;;5038965;28;20037;-63
2024/02/16 08:44:18;;;;;;;4.07;2.28;;;;;;;;;;5037933;28;20410;-63
2024/02/16 08:46:46;;;;;;;5.28;3.33;;;;;;;;;;5041866;28;20049;-65
2024/02/16 08:49:12;;;;;;;5.15;2.75;;;;;;;;;;5034719;28;20067;-63
2024/02/16 08:51:38;;;;;;;3.75;2.45;;;;;;;;;;5028007;28;20037;-63
2024/02/16 08:54:04;;;;;;;5.43;2.40;;;;;;;;;;5028695;28;20041;-62
2024/02/16 08:56:31;;;;;;;3.03;2.30;;;;;;;;;;5021362;28;20063;-63
2024/02/16 08:58:57;;;;;;;5.28;2.83;;;;;;;;;;5029375;28;20052;-63
2024/02/16 09:01:33;;;;;;;5.78;3.38;;;;;;;;;;5025344;28;20049;-63
2024/02/16 09:04:00;;;;;;;6.80;3.15;;;;;;;;;;5031173;28;20053;-62
2024/02/16 09:06:27;;;;;;;5.10;2.40;;;;;;;;;;5023647;28;20060;-63
2024/02/16 09:08:57;;;;;;;5.32;2.42;;;;;;;;;;5026133;28;20052;-61
2024/02/16 09:11:23;;;;;;;2.53;2.15;;;;;;;;;;5029734;28;20042;-61
2024/02/16 09:13:50;;;;;;;4.82;2.55;;;;;;;;;;5030520;28;20049;-61
2024/02/16 09:16:16;;;;;;;6.40;2.70;;;;;;;;;;5027141;28;20046;-61
2024/02/16 09:18:42;;;;;;;3.97;2.22;;;;;;;;;;5028093;28;20037;-62
2024/02/16 09:21:10;;;;;;;4.18;2.90;;;;;;;;;;5024859;28;20038;-62
2024/02/16 09:23:37;;;;;;;6.57;3.25;;;;;;;;;;5030128;28;20045;-62
2024/02/16 09:26:03;;;;;;;11.43;3.45;;;;;;;;;;5024489;28;20052;-61
2024/02/16 09:28:29;;;;;;;14.95;6.07;;;;;;;;;;5066209;28;20488;-62
2024/02/16 09:30:56;;;;;;;17.58;7.68;;;;;;;;;;5041195;28;20037;-61
2024/02/16 09:33:24;;;;;;;13.80;5.95;;;;;;;;;;5034014;28;20041;-62
2024/02/16 09:35:50;;;;;;;8.75;4.43;;;;;;;;;;5033174;28;20408;-62
2024/02/16 09:38:17;;;;;;;4.70;2.60;;;;;;;;;;5034079;28;20042;-62
2024/02/16 09:40:44;;;;;;;3.90;2.28;;;;;;;;;;5033924;28;20045;-63
2024/02/16 09:43:10;;;;;;;3.25;2.03;;;;;;;;;;5026996;28;20041;-62
2024/02/16 09:45:37;;;;;;;3.97;2.03;;;;;;;;;;5039456;28;20052;-62
2024/02/16 09:48:07;;;;;;;3.08;2.03;;;;;;;;;;5023827;28;20061;-63
2024/02/16 09:50:34;;;;;;;3.95;2.30;;;;;;;;;;5019852;28;20076;-62
2024/02/16 09:53:04;;;;;;;5.03;3.03;;;;;;;;;;5024498;28;20072;-62
2024/02/16 09:55:32;;;;;;;;;;;;;;;;;;5029863;28;20045;-62
2024/02/16 09:57:59;;;;;;;6.20;3.50;;;;;;;;;;5019938;28;20466;-62
2024/02/16 10:00:26;;;;;;;4.65;2.65;;;;;;;;;;5027997;28;20045;-62
2024/02/16 10:02:52;;;;;;;5.15;2.65;;;;;;;;;;5025058;28;20030;-62
2024/02/16 10:05:21;;;;;;;8.63;3.03;;;;;;;;;;5021425;28;20049;-65
2024/02/16 10:07:48;;;;;;;;;;;;;;;;;;5017156;28;20623;-62
2024/02/16 10:10:26;;;;;;;6.90;3.22;;;;;;;;;;5017209;28;19924;-63
2024/02/16 10:13:05;;;;;;;95.97;28.23;;;;;;;;;;5021654;28;20033;-63
2024/02/16 10:15:32;;;;;;;18.27;6.35;;;;;;;;;;5026644;28;20421;-63
2024/02/16 10:18:02;;;;;;;14.77;5.28;;;;;;;;;;5022847;28;20065;-63
2024/02/16 10:20:29;;;;;;;4.75;2.55;;;;;;;;;;5030681;28;20048;-64
2024/02/16 10:23:05;;;;;;;6.30;2.58;;;;;;;;;;5036547;28;20049;-63
2024/02/16 10:25:31;;;;;;;5.68;2.30;;;;;;;;;;5025735;28;20053;-64
2024/02/16 10:27:58;;;;;;;7.68;3.08;;;;;;;;;;5027763;28;20034;-65
2024/02/16 10:30:30;;;;;;;8.02;3.33;;;;;;;;;;5028718;28;20036;-64
2024/02/16 10:32:59;;;;;;;7.68;3.28;;;;;;;;;;5052077;28;20034;-65
2024/02/16 10:35:26;;;;;;;8.10;2.90;;;;;;;;;;5027755;28;20042;-64
2024/02/16 10:37:53;;;;;;;5.50;2.80;;;;;;;;;;5032524;28;20045;-65
2024/02/16 10:40:20;;;;;;;5.25;2.67;;;;;;;;;;5037605;28;20037;-65
2024/02/16 10:42:49;;;;;;;6.07;2.40;;;;;;;;;;5033900;28;20041;-65
2024/02/16 10:45:16;;;;;;;8.07;2.92;;;;;;;;;;5028107;28;20046;-64
2024/02/16 10:47:42;;;;;;;6.28;3.70;;;;;;;;;;5023901;28;20041;-64
2024/02/16 10:50:09;;;;;;;10.07;3.15;;;;;;;;;;5028845;28;20425;-64
2024/02/16 10:52:38;;;;;;;9.18;3.25;;;;;;;;;;5027103;28;21561;-64
2024/02/16 10:55:05;;;;;;;5.28;2.50;;;;;;;;;;5028911;28;20037;-64
2024/02/16 10:57:33;;;;;;;8.05;2.90;;;;;;;;;;5027217;28;20048;-63
2024/02/16 10:59:59;;;;;;;5.68;2.55;;;;;;;;;;5025138;28;20420;-64
2024/02/16 11:02:26;;;;;;;5.15;2.30;;;;;;;;;;5023147;28;20535;-65
2024/02/16 11:04:53;;;;;;;4.50;2.50;;;;;;;;;;5026521;28;20029;-64
2024/02/16 11:07:20;;;;;;;11.40;4.40;;;;;;;;;;5028643;28;20041;-64
2024/02/16 11:09:46;;;;;;;7.50;2.65;;;;;;;;;;5034372;28;20056;-65
2024/02/16 11:12:15;;;;;;;4.30;2.17;;;;;;;;;;5043068;28;20209;-61
2024/02/16 11:14:44;;;;;;;8.87;3.83;;;;;;;;;;5030843;28;20512;-61
2024/02/16 11:17:11;;;;;;;;;;;;;;;;;;5043083;28;20055;-61
2024/02/16 11:19:40;;;;;;;4.60;2.05;;;;;;;;;;5037831;28;19923;-61
2024/02/16 11:22:10;;;;;;;3.47;1.73;;;;;;;;;;5029414;28;20030;-60
2024/02/16 11:24:42;;;;;;;4.03;1.80;;;;;;;;;;5033995;28;20041;-60
2024/02/16 11:27:10;;;;;;;5.38;2.00;;;;;;;;;;5035024;28;20041;-60
2024/02/16 11:29:38;;;;;;;8.35;1.95;;;;;;;;;;5037758;28;20037;-60
2024/02/16 11:32:05;;;;;;;5.28;2.13;;;;;;;;;;5033051;28;20558;-61
2024/02/16 11:34:33;;;;;;;7.88;1.98;;;;;;;;;;5028396;28;20062;-62
2024/02/16 11:37:01;;;;;;;5.93;2.30;;;;;;;;;;5033006;28;20040;-60
2024/02/16 11:39:37;;;;;;;6.60;2.88;;;;;;;;;;5031848;28;20037;-61
2024/02/16 11:42:04;;;;;;;12.32;2.20;;;;;;;;;;5030945;28;20045;-61
2024/02/16 11:44:34;;;;;;;7.93;2.53;;;;;;;;;;5025530;28;20049;-63
2024/02/16 11:47:02;;;;;;;4.22;1.95;;;;;;;;;;5030964;28;20052;-62
2024/02/16 11:49:29;;;;;;;4.63;2.30;;;;;;;;;;5031551;28;20409;-61
2024/02/16 11:51:56;;;;;;;2.47;1.52;;;;;;;;;;5026127;28;20401;-62
2024/02/16 11:54:22;;;;;;;3.28;2.00;;;;;;;;;;5032754;28;20044;-61
2024/02/16 11:56:52;;;;;;;3.55;1.77;;;;;;;;;;5033227;28;20053;-61
2024/02/16 11:59:19;;;;;;;6.78;2.90;;;;;;;;;;5032654;28;20413;-62
2024/02/16 12:01:55;;;;;;;5.68;2.83;;;;;;;;;;5037253;28;20484;-61
2024/02/16 12:04:28;;;;;;;8.10;3.78;;;;;;;;;;5031438;28;20521;-61
2024/02/16 12:06:59;;;;;;;3.17;2.10;;;;;;;;;;5037476;28;20412;-62
2024/02/16 12:09:26;;;;;;;6.80;3.35;;;;;;;;;;5038545;28;20049;-63
2024/02/16 12:11:53;;;;;;;6.07;2.30;;;;;;;;;;5030347;28;20086;-66
2024/02/16 12:14:23;;;;;;;4.45;2.65;;;;;;;;;;5030275;28;20040;-64
2024/02/16 12:16:56;;;;;;;6.20;2.35;;;;;;;;;;5029988;28;20053;-65
2024/02/16 12:19:23;;;;;;;4.95;2.58;;;;;;;;;;5032963;28;20052;-65
2024/02/16 12:21:50;;;;;;;5.20;2.03;;;;;;;;;;5030793;28;20064;-65
2024/02/16 12:24:17;;;;;;;14.50;2.60;;;;;;;;;;5034906;28;20041;-65
2024/02/16 12:26:43;;;;;;;6.85;2.90;;;;;;;;;;5029221;28;20072;-65
2024/02/16 12:29:12;;;;;;;6.18;2.30;;;;;;;;;;5035490;28;20052;-65
2024/02/16 12:31:43;;;;;;;7.55;2.53;;;;;;;;;;5034569;28;20033;-65
2024/02/16 12:34:09;;;;;;;5.88;1.90;;;;;;;;;;5027458;28;20025;-65
2024/02/16 12:36:35;;;;;;;5.30;1.98;;;;;;;;;;5028958;28;20049;-66
2024/02/16 12:39:03;;;;;;;5.95;2.20;;;;;;;;;;5029239;28;20531;-64
2024/02/16 12:41:30;;;;;;;4.53;1.80;;;;;;;;;;5032357;28;20527;-66
2024/02/16 12:43:56;;;;;;;4.18;2.30;;;;;;;;;;5059838;28;20129;-66
2024/02/16 12:46:22;;;;;;;5.00;2.08;;;;;;;;;;5029017;28;20493;-62
2024/02/16 12:48:48;;;;;;;3.20;1.77;;;;;;;;;;5019456;28;20046;-63
2024/02/16 12:51:15;;;;;;;7.70;2.05;;;;;;;;;;5031838;28;20057;-62
2024/02/16 12:53:41;;;;;;;6.85;2.55;;;;;;;;;;5031211;28;20567;-61
2024/02/16 12:56:08;;;;;;;7.15;2.72;;;;;;;;;;5029063;28;20045;-64
2024/02/16 12:58:35;;;;;;;6.32;2.60;;;;;;;;;;5029650;28;20053;-62
2024/02/16 13:01:08;;;;;;;6.32;2.50;;;;;;;;;;5029608;28;20038;-61
2024/02/16 13:03:35;;;;;;;4.20;2.50;;;;;;;;;;5021465;28;20061;-63
2024/02/16 13:06:02;;;;;;;6.05;2.80;;;;;;;;;;5030732;28;20045;-64
2024/02/16 13:08:29;;;;;;;5.63;2.88;;;;;;;;;;5029663;28;20413;-62
2024/02/16 13:10:56;;;;;;;3.17;2.58;;;;;;;;;;5034929;28;20044;-62
2024/02/16 13:13:23;;;;;;;6.97;4.00;;;;;;;;;;5035950;28;20041;-61
2024/02/16 13:15:50;;;;;;;21.75;19.60;;;;;;;;;;5039164;28;20056;-62
2024/02/16 13:18:17;;;;;;;4.65;2.80;;;;;;;;;;5031226;28;20049;-62
2024/02/16 13:20:43;;;;;;;4.20;2.03;;;;;;;;;;5033012;28;20068;-61
2024/02/16 13:23:10;;;;;;;7.30;2.50;;;;;;;;;;5039695;28;20496;-60
2024/02/16 13:25:36;;;;;;;5.85;2.22;;;;;;;;;;5044348;28;20044;-61
2024/02/16 13:28:03;;;;;;;5.57;2.50;;;;;;;;;;5034840;28;20413;-62
2024/02/16 13:30:29;;;;;;;6.65;2.67;;;;;;;;;;5041625;28;20029;-61
2024/02/16 13:32:55;;;;;;;7.55;2.53;;;;;;;;;;5039780;28;20567;-62
2024/02/16 13:35:22;;;;;;;5.85;3.10;;;;;;;;;;5039101;28;20429;-61
2024/02/16 13:37:49;;;;;;;6.00;2.47;;;;;;;;;;5030165;28;20093;-61
2024/02/16 13:40:16;;;;;;;4.97;2.38;;;;;;;;;;5030007;28;20056;-61
2024/02/16 13:42:42;;;;;;;6.82;2.83;;;;;;;;;;5029427;28;20052;-61
2024/02/16 13:45:09;;;;;;;8.75;4.13;;;;;;;;;;5034663;28;20034;-61
2024/02/16 13:47:35;;;;;;;4.88;2.30;;;;;;;;;;5032257;28;20052;-61
2024/02/16 13:50:02;;;;;;;4.47;2.40;;;;;;;;;;5033063;28;20060;-61
2024/02/16 13:52:28;;;;;;;4.43;2.35;;;;;;;;;;5029472;28;20057;-61
2024/02/16 13:54:54;;;;;;;6.53;2.33;;;;;;;;;;5028081;28;20417;-61
2024/02/16 13:57:21;;;;;;;6.95;2.60;;;;;;;;;;5025268;28;20049;-62
2024/02/16 13:59:47;;;;;;;8.52;2.30;;;;;;;;;;5028341;28;20511;-62
2024/02/16 14:02:13;;;;;;;8.07;2.63;;;;;;;;;;5028633;28;20040;-61
2024/02/16 14:04:39;;;;;;;6.95;3.05;;;;;;;;;;5031432;28;20527;-62
2024/02/16 14:07:05;;;;;;;9.98;3.40;;;;;;;;;;5027905;28;20055;-60
2024/02/16 14:09:32;;;;;;;7.57;3.50;;;;;;;;;;5031335;28;20416;-61
2024/02/16 14:11:58;;;;;;;10.27;3.40;;;;;;;;;;5031874;28;20042;-61
2024/02/16 14:14:25;;;;;;;6.30;3.40;;;;;;;;;;5029470;28;20135;-62
2024/02/16 14:16:52;;;;;;;5.80;3.75;;;;;;;;;;5030965;28;20523;-61
2024/02/16 14:19:18;;;;;;;9.45;3.45;;;;;;;;;;5033167;28;20049;-61
2024/02/16 14:21:44;;;;;;;6.00;2.95;;;;;;;;;;5033356;28;20049;-62
2024/02/16 14:24:12;;;;;;;5.30;3.55;;;;;;;;;;5025195;28;20053;-61
2024/02/16 14:26:39;;;;;;;6.27;2.77;;;;;;;;;;5033279;28;20068;-61
2024/02/16 14:29:06;;;;;;;117.60;108.47;;;;;;;;;;5036433;28;20048;-62
2024/02/16 14:31:33;;;;;;;98.25;90.43;;;;;;;;;;5034132;28;20053;-62
2024/02/16 14:34:00;;;;;;;74.75;68.55;;;;;;;;;;5022073;28;20052;-60
2024/02/16 14:36:26;;;;;;;14.82;9.77;;;;;;;;;;5021422;28;20030;-60
2024/02/16 14:38:52;;;;;;;7.32;3.55;;;;;;;;;;5028448;28;20030;-62
2024/02/16 14:41:18;;;;;;;10.00;4.40;;;;;;;;;;5024415;28;20055;-61